createdAt,value
2018-09-11T00:00:03.656Z,80
2018-09-11T00:01:05.683Z,80
2018-09-11T00:02:07.718Z,79
2018-09-11T00:03:09.757Z,81
2018-09-11T00:04:12.072Z,80
2018-09-11T00:05:14.967Z,81
2018-09-11T00:06:17.278Z,80
2018-09-11T00:07:19.308Z,80
2018-09-11T00:08:21.351Z,80
2018-09-11T00:09:23.378Z,81
2018-09-11T00:10:25.408Z,81
2018-09-11T00:11:27.442Z,80
2018-09-11T00:12:29.863Z,81
2018-09-11T00:13:32.209Z,82
2018-09-11T00:14:34.250Z,81
2018-09-11T00:15:36.291Z,82
2018-09-11T00:16:38.313Z,82
2018-09-11T00:17:40.647Z,80
2018-09-11T00:18:42.674Z,79
2018-09-11T00:19:45.095Z,80
2018-09-11T00:20:47.135Z,80
2018-09-11T00:21:49.159Z,81
2018-09-11T00:22:51.204Z,80
2018-09-11T00:23:53.239Z,80
2018-09-11T00:24:55.282Z,79
2018-09-11T00:25:57.326Z,80
2018-09-11T00:26:59.353Z,81
2018-09-11T00:28:01.384Z,81
2018-09-11T00:29:03.726Z,80
2018-09-11T00:30:05.750Z,82
2018-09-11T00:31:07.795Z,81
2018-09-11T00:32:09.840Z,80
2018-09-11T00:33:12.439Z,79
2018-09-11T00:34:14.748Z,78
2018-09-11T00:35:16.782Z,79
2018-09-11T00:36:18.820Z,79
2018-09-11T00:37:20.839Z,79
2018-09-11T00:38:22.884Z,81
2018-09-11T00:39:25.220Z,80
2018-09-11T00:40:27.233Z,78
2018-09-11T00:41:29.282Z,79
2018-09-11T00:42:31.596Z,81
2018-09-11T00:43:33.627Z,81
2018-09-11T00:44:35.662Z,78
2018-09-11T00:45:37.693Z,80
2018-09-11T00:46:39.727Z,80
2018-09-11T00:47:41.768Z,82
2018-09-11T00:48:44.115Z,79
2018-09-11T00:49:46.434Z,82
2018-09-11T00:50:48.478Z,81
2018-09-11T00:51:50.848Z,80
2018-09-11T00:52:52.821Z,79
2018-09-11T00:53:55.149Z,78
2018-09-11T00:54:57.172Z,78
2018-09-11T00:55:59.211Z,79
2018-09-11T00:57:01.240Z,79
2018-09-11T00:58:03.293Z,78
2018-09-11T00:59:05.316Z,78
2018-09-11T01:00:07.355Z,80
2018-09-11T01:01:09.400Z,79
2018-09-11T01:02:11.708Z,79
2018-09-11T01:03:13.746Z,80
2018-09-11T01:04:16.182Z,81
2018-09-11T01:05:18.616Z,80
2018-09-11T01:06:20.643Z,80
2018-09-11T01:07:22.674Z,79
2018-09-11T01:08:24.716Z,80
2018-09-11T01:09:27.052Z,80
2018-09-11T01:10:29.465Z,80
2018-09-11T01:11:31.518Z,78
2018-09-11T01:12:33.833Z,80
2018-09-11T01:13:35.860Z,79
2018-09-11T01:14:37.910Z,79
2018-09-11T01:15:39.948Z,79
2018-09-11T01:16:41.974Z,78
2018-09-11T01:17:44.013Z,81
2018-09-11T01:18:46.041Z,79
2018-09-11T01:19:48.361Z,78
2018-09-11T01:20:50.404Z,79
2018-09-11T01:21:52.727Z,78
2018-09-11T01:22:54.758Z,81
2018-09-11T01:23:56.798Z,80
2018-09-11T01:24:58.829Z,80
2018-09-11T01:26:00.864Z,80
2018-09-11T01:27:03.181Z,80
2018-09-11T01:28:05.202Z,80
2018-09-11T01:29:07.241Z,80
2018-09-11T01:30:09.571Z,81
2018-09-11T01:31:11.904Z,81
2018-09-11T01:32:13.926Z,80
2018-09-11T01:33:15.967Z,80
2018-09-11T01:34:18.004Z,81
2018-09-11T01:35:20.034Z,80
2018-09-11T01:36:22.077Z,81
2018-09-11T01:37:24.114Z,80
2018-09-11T01:38:26.144Z,80
2018-09-11T01:39:28.181Z,80
2018-09-11T01:40:30.511Z,79
2018-09-11T01:41:32.542Z,79
2018-09-11T01:42:34.581Z,78
2018-09-11T01:43:36.620Z,79
2018-09-11T01:44:38.645Z,79
2018-09-11T01:45:40.682Z,79
2018-09-11T01:46:42.720Z,79
2018-09-11T01:47:45.133Z,78
2018-09-11T01:48:47.449Z,78
2018-09-11T01:49:49.775Z,78
2018-09-11T01:50:52.193Z,78
2018-09-11T01:51:54.234Z,78
2018-09-11T01:52:56.262Z,78
2018-09-11T01:53:58.292Z,78
2018-09-11T01:55:00.617Z,78
2018-09-11T01:56:02.666Z,78
2018-09-11T01:57:04.680Z,78
2018-09-11T01:58:06.714Z,78
2018-09-11T01:59:08.750Z,78
2018-09-11T02:00:10.779Z,78
2018-09-11T02:01:13.109Z,78
2018-09-11T02:02:15.142Z,78
2018-09-11T02:03:17.188Z,78
2018-09-11T02:04:19.212Z,77
2018-09-11T02:05:21.547Z,77
2018-09-11T02:06:23.575Z,78
2018-09-11T02:07:25.601Z,78
2018-09-11T02:08:28.424Z,77
2018-09-11T02:09:30.791Z,77
2018-09-11T02:10:32.826Z,77
2018-09-11T02:11:34.865Z,77
2018-09-11T02:12:36.904Z,77
2018-09-11T02:13:39.316Z,77
2018-09-11T02:14:41.639Z,77
2018-09-11T02:15:44.058Z,77
2018-09-11T02:16:46.091Z,77
2018-09-11T02:17:48.133Z,77
2018-09-11T02:18:50.443Z,77
2018-09-11T02:19:52.481Z,77
2018-09-11T02:20:54.501Z,77
2018-09-11T02:21:56.844Z,77
2018-09-11T02:22:59.176Z,77
2018-09-11T02:24:01.207Z,77
2018-09-11T02:25:03.539Z,77
2018-09-11T02:26:05.849Z,77
2018-09-11T02:27:07.875Z,77
2018-09-11T02:28:09.899Z,77
2018-09-11T02:29:11.948Z,77
2018-09-11T02:30:15.227Z,77
2018-09-11T02:31:17.262Z,77
2018-09-11T02:32:19.970Z,77
2018-09-11T02:33:22.390Z,77
2018-09-11T02:34:24.714Z,77
2018-09-11T02:35:26.752Z,77
2018-09-11T02:36:29.184Z,77
2018-09-11T02:37:31.781Z,77
2018-09-11T02:38:33.826Z,77
2018-09-11T02:39:36.137Z,77
2018-09-11T02:40:38.169Z,78
2018-09-11T02:41:40.491Z,78
2018-09-11T02:42:42.803Z,78
2018-09-11T02:43:45.126Z,79
2018-09-11T02:44:47.552Z,80
2018-09-11T02:45:49.996Z,79
2018-09-11T02:46:52.224Z,79
2018-09-11T02:47:54.647Z,79
2018-09-11T02:48:56.681Z,79
2018-09-11T02:49:58.709Z,80
2018-09-11T02:51:00.757Z,80
2018-09-11T02:52:03.176Z,80
2018-09-11T02:53:05.509Z,80
2018-09-11T02:54:08.509Z,80
2018-09-11T02:55:10.925Z,80
2018-09-11T02:56:12.951Z,80
2018-09-11T02:57:14.986Z,80
2018-09-11T02:58:17.312Z,81
2018-09-11T02:59:19.345Z,81
2018-09-11T03:00:21.384Z,82
2018-09-11T03:01:23.419Z,82
2018-09-11T03:02:26.216Z,82
2018-09-11T03:03:28.645Z,83
2018-09-11T03:04:31.060Z,83
2018-09-11T03:05:33.091Z,84
2018-09-11T03:06:35.129Z,84
2018-09-11T03:07:37.438Z,84
2018-09-11T03:08:39.794Z,85
2018-09-11T03:09:41.820Z,85
2018-09-11T03:10:44.160Z,86
2018-09-11T03:11:46.186Z,86
2018-09-11T03:12:48.227Z,87
2018-09-11T03:13:50.661Z,87
2018-09-11T03:14:52.968Z,87
2018-09-11T03:15:55.701Z,87
2018-09-11T03:16:57.727Z,88
2018-09-11T03:18:00.060Z,88
2018-09-11T03:19:03.115Z,88
2018-09-11T03:20:05.849Z,89
2018-09-11T03:21:08.262Z,89
2018-09-11T03:22:10.585Z,89
2018-09-11T03:23:12.621Z,89
2018-09-11T03:24:15.212Z,90
2018-09-11T03:25:17.253Z,90
2018-09-11T03:26:19.295Z,90
2018-09-11T03:27:21.603Z,90
2018-09-11T03:28:23.925Z,91
2018-09-11T03:29:25.967Z,91
2018-09-11T03:30:28.004Z,91
2018-09-11T03:31:31.032Z,91
2018-09-11T03:32:33.072Z,92
2018-09-11T03:33:35.473Z,92
2018-09-11T03:34:37.498Z,92
2018-09-11T03:35:39.525Z,92
2018-09-11T03:36:41.575Z,92
2018-09-11T03:37:43.897Z,92
2018-09-11T03:38:45.927Z,92
2018-09-11T03:39:47.964Z,92
2018-09-11T03:40:49.986Z,93
2018-09-11T03:41:52.023Z,93
2018-09-11T03:42:54.437Z,93
2018-09-11T03:43:56.481Z,93
2018-09-11T03:44:58.512Z,93
2018-09-11T03:46:00.933Z,93
2018-09-11T03:47:02.987Z,94
2018-09-11T03:48:05.297Z,94
2018-09-11T03:49:07.338Z,94
2018-09-11T03:50:09.373Z,94
2018-09-11T03:51:11.391Z,94
2018-09-11T03:52:13.699Z,94
2018-09-11T03:53:15.744Z,95
2018-09-11T03:54:17.775Z,95
2018-09-11T03:55:19.807Z,95
2018-09-11T03:56:22.136Z,95
2018-09-11T03:57:24.159Z,95
2018-09-11T03:58:26.195Z,96
2018-09-11T03:59:28.230Z,95
2018-09-11T04:00:30.534Z,95
2018-09-11T04:01:32.574Z,95
2018-09-11T04:02:34.902Z,96
2018-09-11T04:03:37.212Z,96
2018-09-11T04:04:39.247Z,96
2018-09-11T04:05:41.272Z,96
2018-09-11T04:06:43.299Z,97
2018-09-11T04:07:45.323Z,97
2018-09-11T04:08:47.960Z,97
2018-09-11T04:09:49.981Z,97
2018-09-11T04:10:52.013Z,98
2018-09-11T04:11:54.427Z,98
2018-09-11T04:12:56.458Z,98
2018-09-11T04:13:59.084Z,99
2018-09-11T04:15:01.777Z,99
2018-09-11T04:16:03.809Z,99
2018-09-11T04:17:05.831Z,99
2018-09-11T04:18:07.876Z,99
2018-09-11T04:19:09.904Z,99
2018-09-11T04:20:12.218Z,99
2018-09-11T04:21:14.541Z,99
2018-09-11T04:22:17.235Z,100
2018-09-11T04:23:20.342Z,100
2018-09-11T04:24:22.959Z,100
2018-09-11T04:25:24.993Z,100
2018-09-11T04:26:27.013Z,100
2018-09-11T04:27:29.052Z,100
2018-09-11T04:28:31.364Z,100
2018-09-11T04:29:33.388Z,100
2018-09-11T04:30:35.436Z,100
2018-09-11T04:31:38.048Z,100
2018-09-11T04:32:40.077Z,100
2018-09-11T04:33:42.696Z,100
2018-09-11T04:34:44.732Z,100
2018-09-11T04:35:46.769Z,100
2018-09-11T04:36:48.789Z,100
2018-09-11T04:37:50.817Z,100
2018-09-11T04:38:52.853Z,100
2018-09-11T04:39:55.171Z,100
2018-09-11T04:40:57.216Z,100
2018-09-11T04:41:59.224Z,100
2018-09-11T04:43:01.345Z,100
2018-09-11T04:44:04.606Z,100
2018-09-11T04:45:07.331Z,100
2018-09-11T04:46:09.746Z,100
2018-09-11T04:47:11.766Z,100
2018-09-11T04:48:13.802Z,100
2018-09-11T04:49:15.827Z,100
2018-09-11T04:50:17.873Z,100
2018-09-11T04:51:19.895Z,100
2018-09-11T04:52:22.216Z,100
2018-09-11T04:53:24.234Z,100
2018-09-11T04:54:26.268Z,100
2018-09-11T04:55:28.293Z,100
2018-09-11T04:56:30.332Z,100
2018-09-11T04:57:32.675Z,100
2018-09-11T04:58:34.717Z,100
2018-09-11T04:59:36.740Z,100
2018-09-11T05:00:39.070Z,100
2018-09-11T05:01:41.670Z,100
2018-09-11T05:02:43.991Z,100
2018-09-11T05:03:46.038Z,100
2018-09-11T05:04:48.064Z,100
2018-09-11T05:05:50.088Z,100
2018-09-11T05:06:52.132Z,100
2018-09-11T05:07:54.156Z,100
2018-09-11T05:08:56.181Z,100
2018-09-11T05:09:58.226Z,100
2018-09-11T05:11:00.251Z,100
2018-09-11T05:12:02.865Z,100
2018-09-11T05:13:04.915Z,100
2018-09-11T05:14:07.321Z,100
2018-09-11T05:15:09.727Z,100
2018-09-11T05:16:11.769Z,100
2018-09-11T05:17:13.793Z,100
2018-09-11T05:18:16.489Z,100
2018-09-11T05:19:18.724Z,100
2018-09-11T05:20:20.542Z,100
2018-09-11T05:21:22.580Z,100
2018-09-11T05:22:24.606Z,100
2018-09-11T05:23:26.641Z,100
2018-09-11T05:24:29.246Z,100
2018-09-11T05:25:31.663Z,100
2018-09-11T05:26:33.703Z,100
2018-09-11T05:27:36.390Z,100
2018-09-11T05:28:38.331Z,100
2018-09-11T05:29:40.679Z,100
2018-09-11T05:30:42.715Z,100
2018-09-11T05:31:44.752Z,100
2018-09-11T05:32:46.774Z,100
2018-09-11T05:33:48.806Z,100
2018-09-11T05:34:51.139Z,100
2018-09-11T05:35:53.169Z,100
2018-09-11T05:36:55.205Z,100
2018-09-11T05:37:57.226Z,100
2018-09-11T05:38:59.299Z,100
2018-09-11T05:40:01.679Z,100
2018-09-11T05:41:03.706Z,100
2018-09-11T05:42:06.011Z,100
2018-09-11T05:43:08.043Z,100
2018-09-11T05:44:10.464Z,100
2018-09-11T05:45:12.499Z,100
2018-09-11T05:46:14.535Z,100
2018-09-11T05:47:17.620Z,100
2018-09-11T05:48:19.524Z,100
2018-09-11T05:49:21.575Z,100
2018-09-11T05:50:23.597Z,100
2018-09-11T05:51:25.629Z,100
2018-09-11T05:52:27.665Z,100
2018-09-11T05:53:29.973Z,100
2018-09-11T05:54:32.011Z,100
2018-09-11T05:55:34.044Z,100
2018-09-11T05:56:36.083Z,100
2018-09-11T05:57:38.102Z,100
2018-09-11T05:58:40.150Z,100
2018-09-11T05:59:42.192Z,100
2018-09-11T06:00:44.213Z,100
2018-09-11T06:01:46.656Z,100
2018-09-11T06:02:48.674Z,100
2018-09-11T06:03:50.708Z,100
2018-09-11T06:04:53.098Z,100
2018-09-11T06:05:55.139Z,100
2018-09-11T06:06:57.454Z,100
2018-09-11T06:07:59.490Z,100
2018-09-11T06:09:01.514Z,100
2018-09-11T06:10:03.563Z,100
2018-09-11T06:11:05.602Z,100
2018-09-11T06:12:07.909Z,100
2018-09-11T06:13:10.625Z,100
2018-09-11T06:14:12.647Z,100
2018-09-11T06:15:14.671Z,100
2018-09-11T06:16:17.001Z,100
2018-09-11T06:17:19.374Z,100
2018-09-11T06:18:21.410Z,100
2018-09-11T06:19:23.727Z,100
2018-09-11T06:20:25.765Z,100
2018-09-11T06:21:27.787Z,100
2018-09-11T06:22:29.834Z,100
2018-09-11T06:23:31.862Z,100
2018-09-11T06:24:33.892Z,100
2018-09-11T06:25:36.372Z,100
2018-09-11T06:26:38.353Z,100
2018-09-11T06:27:40.387Z,100
2018-09-11T06:28:42.415Z,100
2018-09-11T06:29:44.459Z,100
2018-09-11T06:30:46.781Z,100
2018-09-11T06:31:48.818Z,100
2018-09-11T06:32:50.853Z,100
2018-09-11T06:33:52.879Z,100
2018-09-11T06:34:54.923Z,100
2018-09-11T06:35:58.007Z,100
2018-09-11T06:37:00.402Z,100
2018-09-11T06:38:02.426Z,100
2018-09-11T06:39:04.469Z,100
2018-09-11T06:40:06.496Z,100
2018-09-11T06:41:08.533Z,100
2018-09-11T06:42:10.566Z,100
2018-09-11T06:43:12.592Z,100
2018-09-11T06:44:14.919Z,100
2018-09-11T06:45:17.245Z,100
2018-09-11T06:46:19.317Z,100
2018-09-11T06:47:21.361Z,100
2018-09-11T06:48:23.403Z,100
2018-09-11T06:49:25.441Z,100
2018-09-11T06:50:27.474Z,100
2018-09-11T06:51:29.498Z,100
2018-09-11T06:52:31.823Z,100
2018-09-11T06:53:33.872Z,100
2018-09-11T06:54:35.927Z,100
2018-09-11T06:55:37.935Z,100
2018-09-11T06:56:40.637Z,100
2018-09-11T06:57:42.957Z,100
2018-09-11T06:58:44.986Z,100
2018-09-11T06:59:47.310Z,100
2018-09-11T07:00:49.344Z,100
2018-09-11T07:01:52.702Z,100
2018-09-11T07:02:55.515Z,100
2018-09-11T07:03:57.849Z,100
2018-09-11T07:04:59.875Z,100
2018-09-11T07:06:02.575Z,100
2018-09-11T07:07:04.918Z,100
2018-09-11T07:08:07.252Z,100
2018-09-11T07:09:09.292Z,100
2018-09-11T07:10:11.332Z,100
2018-09-11T07:11:13.370Z,99
2018-09-11T07:12:15.394Z,99
2018-09-11T07:13:17.438Z,99
2018-09-11T07:14:19.474Z,99
2018-09-11T07:15:21.506Z,99
2018-09-11T07:16:23.556Z,99
2018-09-11T07:17:25.582Z,99
2018-09-11T07:18:27.900Z,98
2018-09-11T07:19:29.974Z,99
2018-09-11T07:20:33.171Z,98
2018-09-11T07:21:35.197Z,99
2018-09-11T07:22:37.227Z,98
2018-09-11T07:23:39.266Z,98
2018-09-11T07:24:41.292Z,99
2018-09-11T07:25:43.321Z,98
2018-09-11T07:26:45.352Z,98
2018-09-11T07:27:47.395Z,98
2018-09-11T07:28:50.005Z,98
2018-09-11T07:29:52.358Z,98
2018-09-11T07:30:54.391Z,97
2018-09-11T07:31:56.417Z,97
2018-09-11T07:32:58.462Z,97
2018-09-11T07:34:00.490Z,97
2018-09-11T07:35:02.668Z,97
2018-09-11T07:36:05.138Z,97
2018-09-11T07:37:07.633Z,97
2018-09-11T07:38:10.008Z,97
2018-09-11T07:39:15.317Z,97
2018-09-11T07:40:17.374Z,97
2018-09-11T07:41:19.683Z,97
2018-09-11T07:42:22.096Z,97
2018-09-11T07:43:24.272Z,97
2018-09-11T07:44:26.436Z,96
2018-09-11T07:45:28.552Z,96
2018-09-11T07:46:30.846Z,95
2018-09-11T07:47:33.817Z,95
2018-09-11T07:48:36.411Z,95
2018-09-11T07:49:38.775Z,95
2018-09-11T07:50:41.011Z,95
2018-09-11T07:51:43.350Z,95
2018-09-11T07:52:46.137Z,96
2018-09-11T07:53:48.143Z,95
2018-09-11T07:54:50.451Z,95
2018-09-11T07:55:52.486Z,95
2018-09-11T07:56:54.524Z,95
2018-09-11T07:57:56.762Z,94
2018-09-11T07:58:58.743Z,94
2018-09-11T08:00:03.556Z,93
2018-09-11T08:01:05.692Z,94
2018-09-11T08:02:07.719Z,93
2018-09-11T08:03:09.838Z,94
2018-09-11T08:04:12.188Z,93
2018-09-11T08:05:14.271Z,94
2018-09-11T08:06:16.547Z,94
2018-09-11T08:07:18.582Z,93
2018-09-11T08:08:20.918Z,93
2018-09-11T08:09:23.512Z,93
2018-09-11T08:10:25.719Z,94
2018-09-11T08:11:28.036Z,93
2018-09-11T08:12:30.067Z,93
2018-09-11T08:13:32.409Z,92
2018-09-11T08:14:34.436Z,92
2018-09-11T08:15:36.858Z,92
2018-09-11T08:16:39.187Z,91
2018-09-11T08:17:41.227Z,91
2018-09-11T08:18:43.642Z,91
2018-09-11T08:19:46.065Z,91
2018-09-11T08:20:48.316Z,91
2018-09-11T08:21:50.355Z,91
2018-09-11T08:22:52.395Z,91
2018-09-11T08:23:54.443Z,92
2018-09-11T08:24:56.758Z,92
2018-09-11T08:25:58.805Z,90
2018-09-11T08:27:00.835Z,90
2018-09-11T08:28:03.251Z,90
2018-09-11T08:29:05.678Z,89
2018-09-11T08:30:07.706Z,91
2018-09-11T08:31:09.744Z,90
2018-09-11T08:32:11.784Z,89
2018-09-11T08:33:13.830Z,90
2018-09-11T08:34:16.131Z,89
2018-09-11T08:35:19.549Z,88
2018-09-11T08:36:21.572Z,88
2018-09-11T08:37:23.606Z,87
2018-09-11T08:38:25.924Z,88
2018-09-11T08:39:28.258Z,87
2018-09-11T08:40:30.292Z,88
2018-09-11T08:41:32.723Z,88
2018-09-11T08:42:34.747Z,88
2018-09-11T08:43:36.794Z,86
2018-09-11T08:44:39.214Z,86
2018-09-11T08:45:41.245Z,85
2018-09-11T08:46:43.656Z,85
2018-09-11T08:47:45.661Z,84
2018-09-11T08:48:47.985Z,84
2018-09-11T08:49:50.325Z,82
2018-09-11T08:50:52.656Z,82
2018-09-11T08:51:54.683Z,81
2018-09-11T08:52:56.725Z,82
2018-09-11T08:53:58.757Z,82
2018-09-11T08:55:01.083Z,81
2018-09-11T08:56:03.141Z,80
2018-09-11T08:57:05.552Z,81
2018-09-11T08:58:07.579Z,83
2018-09-11T08:59:09.634Z,79
2018-09-11T09:00:11.947Z,79
2018-09-11T09:01:13.977Z,78
2018-09-11T09:02:16.021Z,78
2018-09-11T09:03:18.051Z,78
2018-09-11T09:04:20.091Z,77
2018-09-11T09:05:22.132Z,78
2018-09-11T09:06:24.457Z,79
2018-09-11T09:07:26.483Z,78
2018-09-11T09:08:28.912Z,77
2018-09-11T09:09:31.328Z,78
2018-09-11T09:10:33.365Z,78
2018-09-11T09:11:35.452Z,77
2018-09-11T09:12:37.434Z,77
2018-09-11T09:13:39.472Z,77
2018-09-11T09:14:41.502Z,77
2018-09-11T09:15:43.692Z,77
2018-09-11T09:16:45.582Z,76
2018-09-11T09:17:47.912Z,78
2018-09-11T09:18:49.959Z,77
2018-09-11T09:19:51.990Z,76
2018-09-11T09:20:54.074Z,78
2018-09-11T09:21:56.455Z,77
2018-09-11T09:22:58.489Z,77
2018-09-11T09:24:00.530Z,77
2018-09-11T09:25:02.569Z,76
2018-09-11T09:26:04.895Z,75
2018-09-11T09:27:06.980Z,74
2018-09-11T09:28:10.099Z,74
2018-09-11T09:29:12.123Z,72
2018-09-11T09:30:14.172Z,71
2018-09-11T09:31:16.215Z,72
2018-09-11T09:32:18.241Z,69
2018-09-11T09:33:20.284Z,69
2018-09-11T09:34:22.323Z,69
2018-09-11T09:35:24.362Z,69
2018-09-11T09:36:26.722Z,69
2018-09-11T09:37:28.747Z,68
2018-09-11T09:38:30.780Z,67
2018-09-11T09:39:32.812Z,66
2018-09-11T09:40:34.863Z,67
2018-09-11T09:41:36.890Z,68
2018-09-11T09:42:38.936Z,66
2018-09-11T09:43:40.971Z,66
2018-09-11T09:44:43.291Z,65
2018-09-11T09:45:45.344Z,64
2018-09-11T09:46:47.377Z,64
2018-09-11T09:47:49.417Z,65
2018-09-11T09:48:51.444Z,63
2018-09-11T09:49:53.782Z,64
2018-09-11T09:50:55.943Z,63
2018-09-11T09:51:57.855Z,65
2018-09-11T09:52:59.900Z,63
2018-09-11T09:54:02.609Z,64
2018-09-11T09:55:04.641Z,63
2018-09-11T09:56:06.676Z,63
2018-09-11T09:57:09.013Z,62
2018-09-11T09:58:11.068Z,63
2018-09-11T09:59:13.386Z,62
2018-09-11T10:00:15.727Z,62
2018-09-11T10:01:18.084Z,63
2018-09-11T10:02:20.112Z,62
2018-09-11T10:03:22.163Z,63
2018-09-11T10:04:24.211Z,63
2018-09-11T10:05:26.528Z,62
2018-09-11T10:06:28.571Z,62
2018-09-11T10:07:30.898Z,62
2018-09-11T10:08:33.223Z,63
2018-09-11T10:09:35.269Z,62
2018-09-11T10:10:37.303Z,63
2018-09-11T10:11:40.466Z,65
2018-09-11T10:12:42.465Z,61
2018-09-11T10:13:44.517Z,60
2018-09-11T10:14:47.137Z,59
2018-09-11T10:15:49.186Z,58
2018-09-11T10:16:51.229Z,57
2018-09-11T10:17:53.269Z,58
2018-09-11T10:18:55.320Z,57
2018-09-11T10:19:57.354Z,57
2018-09-11T10:20:59.398Z,59
2018-09-11T10:22:01.426Z,57
2018-09-11T10:23:03.865Z,56
2018-09-11T10:24:05.909Z,57
2018-09-11T10:25:07.947Z,56
2018-09-11T10:26:09.995Z,56
2018-09-11T10:27:12.028Z,56
2018-09-11T10:28:14.361Z,58
2018-09-11T10:29:16.416Z,56
2018-09-11T10:30:18.467Z,56
2018-09-11T10:31:20.499Z,56
2018-09-11T10:32:22.548Z,57
2018-09-11T10:33:24.593Z,57
2018-09-11T10:34:26.927Z,57
2018-09-11T10:35:29.349Z,58
2018-09-11T10:36:31.997Z,58
2018-09-11T10:37:34.046Z,57
2018-09-11T10:38:36.378Z,58
2018-09-11T10:39:38.426Z,57
2018-09-11T10:40:40.472Z,57
2018-09-11T10:41:42.519Z,57
2018-09-11T10:42:44.571Z,57
2018-09-11T10:43:46.609Z,57
2018-09-11T10:44:48.667Z,58
2018-09-11T10:45:51.357Z,57
2018-09-11T10:46:53.412Z,57
2018-09-11T10:47:55.452Z,56
2018-09-11T10:48:57.499Z,56
2018-09-11T10:49:59.538Z,56
2018-09-11T10:51:01.575Z,57
2018-09-11T10:52:03.630Z,55
2018-09-11T10:53:05.664Z,56
2018-09-11T10:54:07.713Z,56
2018-09-11T10:55:09.744Z,55
2018-09-11T10:56:12.078Z,54
2018-09-11T10:57:14.117Z,53
2018-09-11T10:58:16.181Z,53
2018-09-11T10:59:18.498Z,53
2018-09-11T11:00:20.580Z,54
2018-09-11T11:01:22.578Z,52
2018-09-11T11:02:24.620Z,53
2018-09-11T11:03:26.677Z,53
2018-09-11T11:04:29.106Z,52
2018-09-11T11:05:31.152Z,51
2018-09-11T11:06:33.496Z,51
2018-09-11T11:07:35.543Z,51
2018-09-11T11:08:37.879Z,51
2018-09-11T11:09:39.915Z,51
2018-09-11T11:10:41.963Z,51
2018-09-11T11:11:44.002Z,51
2018-09-11T11:12:46.347Z,50
2018-09-11T11:13:48.394Z,50
2018-09-11T11:14:50.725Z,50
2018-09-11T11:15:52.780Z,50
2018-09-11T11:16:55.114Z,51
2018-09-11T11:17:57.427Z,50
2018-09-11T11:18:59.468Z,51
2018-09-11T11:20:01.530Z,50
2018-09-11T11:21:03.845Z,51
2018-09-11T11:22:06.202Z,51
2018-09-11T11:23:09.027Z,52
2018-09-11T11:24:11.067Z,50
2018-09-11T11:25:13.122Z,51
2018-09-11T11:26:15.169Z,51
2018-09-11T11:27:17.532Z,51
2018-09-11T11:28:19.530Z,52
2018-09-11T11:29:21.585Z,51
2018-09-11T11:30:23.621Z,51
2018-09-11T11:31:25.661Z,53
2018-09-11T11:32:27.708Z,52
2018-09-11T11:33:29.743Z,53
2018-09-11T11:34:31.798Z,52
2018-09-11T11:35:34.518Z,53
2018-09-11T11:36:36.764Z,53
2018-09-11T11:37:38.603Z,52
2018-09-11T11:38:40.646Z,52
2018-09-11T11:39:42.690Z,52
2018-09-11T11:40:44.729Z,52
2018-09-11T11:41:46.800Z,52
2018-09-11T11:42:48.868Z,51
2018-09-11T11:43:50.868Z,52
2018-09-11T11:44:52.925Z,53
2018-09-11T11:45:54.968Z,52
2018-09-11T11:46:57.003Z,53
2018-09-11T11:47:59.047Z,53
2018-09-11T11:49:01.090Z,52
2018-09-11T11:50:03.524Z,53
2018-09-11T11:51:05.570Z,53
2018-09-11T11:52:07.619Z,53
2018-09-11T11:53:09.653Z,52
2018-09-11T11:54:11.704Z,53
2018-09-11T11:55:13.898Z,53
2018-09-11T11:56:15.786Z,53
2018-09-11T11:57:17.832Z,53
2018-09-11T11:58:20.152Z,53
2018-09-11T11:59:22.199Z,54
2018-09-11T12:00:24.525Z,54
2018-09-11T12:01:26.891Z,54
2018-09-11T12:02:29.188Z,54
2018-09-11T12:03:31.232Z,54
2018-09-11T12:04:33.646Z,53
2018-09-11T12:05:36.170Z,53
2018-09-11T12:06:38.229Z,52
2018-09-11T12:07:40.723Z,51
2018-09-11T12:08:42.689Z,51
2018-09-11T12:09:45.018Z,51
2018-09-11T12:10:47.068Z,51
2018-09-11T12:11:49.109Z,51
2018-09-11T12:12:51.152Z,52
2018-09-11T12:13:53.200Z,51
2018-09-11T12:14:55.237Z,52
2018-09-11T12:15:58.634Z,52
2018-09-11T12:17:01.337Z,51
2018-09-11T12:18:03.720Z,52
2018-09-11T12:19:05.783Z,52
2018-09-11T12:20:07.841Z,54
2018-09-11T12:21:10.166Z,52
2018-09-11T12:22:12.217Z,53
2018-09-11T12:23:14.263Z,53
2018-09-11T12:24:16.327Z,53
2018-09-11T12:25:18.710Z,53
2018-09-11T12:26:21.175Z,53
2018-09-11T12:27:23.185Z,53
2018-09-11T12:28:25.223Z,53
2018-09-11T12:29:27.720Z,53
2018-09-11T12:30:29.791Z,53
2018-09-11T12:31:31.819Z,52
2018-09-11T12:32:34.168Z,52
2018-09-11T12:33:36.206Z,52
2018-09-11T12:34:38.258Z,52
2018-09-11T12:35:40.305Z,52
2018-09-11T12:36:42.344Z,52
2018-09-11T12:37:44.424Z,52
2018-09-11T12:38:46.743Z,52
2018-09-11T12:39:48.797Z,52
2018-09-11T12:40:50.839Z,51
2018-09-11T12:41:52.880Z,52
2018-09-11T12:42:54.917Z,54
2018-09-11T12:43:56.972Z,53
2018-09-11T12:44:59.010Z,53
2018-09-11T12:46:01.839Z,53
2018-09-11T12:47:03.814Z,53
2018-09-11T12:48:06.075Z,52
2018-09-11T12:49:07.743Z,51
2018-09-11T12:50:10.179Z,50
2018-09-11T12:51:12.212Z,50
2018-09-11T12:52:14.551Z,50
2018-09-11T12:53:16.601Z,51
2018-09-11T12:54:18.651Z,50
2018-09-11T12:55:20.700Z,50
2018-09-11T12:56:22.740Z,50
2018-09-11T12:57:24.777Z,50
2018-09-11T12:58:27.200Z,50
2018-09-11T12:59:29.268Z,50
2018-09-11T13:00:31.585Z,50
2018-09-11T13:01:33.633Z,50
2018-09-11T13:02:35.743Z,50
2018-09-11T13:03:37.726Z,50
2018-09-11T13:04:39.770Z,49
2018-09-11T13:05:42.206Z,50
2018-09-11T13:06:44.239Z,51
2018-09-11T13:07:46.297Z,50
2018-09-11T13:08:48.326Z,49
2018-09-11T13:09:50.375Z,50
2018-09-11T13:10:52.476Z,49
2018-09-11T13:11:54.465Z,49
2018-09-11T13:12:56.518Z,48
2018-09-11T13:13:58.555Z,49
2018-09-11T13:15:00.599Z,50
2018-09-11T13:16:02.931Z,48
2018-09-11T13:17:04.991Z,48
2018-09-11T13:18:07.318Z,48
2018-09-11T13:19:09.746Z,48
2018-09-11T13:20:11.798Z,48
2018-09-11T13:21:14.219Z,48
2018-09-11T13:22:16.545Z,48
2018-09-11T13:23:18.595Z,49
2018-09-11T13:24:20.633Z,49
2018-09-11T13:25:22.770Z,50
2018-09-11T13:26:24.737Z,51
2018-09-11T13:27:26.781Z,50
2018-09-11T13:28:29.113Z,50
2018-09-11T13:29:31.153Z,51
2018-09-11T13:30:33.478Z,51
2018-09-11T13:31:35.522Z,52
2018-09-11T13:32:38.221Z,51
2018-09-11T13:33:41.712Z,50
2018-09-11T13:34:43.700Z,51
2018-09-11T13:35:45.743Z,50
2018-09-11T13:36:47.779Z,50
2018-09-11T13:37:49.839Z,50
2018-09-11T13:38:51.882Z,50
2018-09-11T13:39:53.933Z,50
2018-09-11T13:40:55.965Z,51
2018-09-11T13:41:58.539Z,50
2018-09-11T13:43:00.610Z,50
2018-09-11T13:44:02.996Z,50
2018-09-11T13:45:05.169Z,49
2018-09-11T13:46:07.506Z,50
2018-09-11T13:47:10.123Z,50
2018-09-11T13:48:12.011Z,49
2018-09-11T13:49:14.342Z,49
2018-09-11T13:50:16.400Z,50
2018-09-11T13:51:18.438Z,49
2018-09-11T13:52:20.485Z,49
2018-09-11T13:53:22.537Z,49
2018-09-11T13:54:25.150Z,49
2018-09-11T13:55:27.197Z,50
2018-09-11T13:56:29.244Z,49
2018-09-11T13:57:31.279Z,49
2018-09-11T13:58:33.335Z,49
2018-09-11T13:59:35.388Z,49
2018-09-11T14:00:37.434Z,49
2018-09-11T14:01:39.487Z,49
2018-09-11T14:02:41.594Z,49
2018-09-11T14:03:43.566Z,49
2018-09-11T14:04:45.609Z,49
2018-09-11T14:05:47.671Z,49
2018-09-11T14:06:49.700Z,49
2018-09-11T14:07:51.756Z,49
2018-09-11T14:08:54.377Z,50
2018-09-11T14:09:56.417Z,49
2018-09-11T14:10:58.479Z,50
2018-09-11T14:12:00.517Z,49
2018-09-11T14:13:02.565Z,49
2018-09-11T14:14:04.602Z,50
2018-09-11T14:15:06.652Z,50
2018-09-11T14:16:08.981Z,50
2018-09-11T14:17:11.018Z,50
2018-09-11T14:18:13.072Z,50
2018-09-11T14:19:15.103Z,50
2018-09-11T14:20:17.438Z,50
2018-09-11T14:21:19.578Z,50
2018-09-11T14:22:21.543Z,51
2018-09-11T14:23:24.172Z,49
2018-09-11T14:24:26.221Z,50
2018-09-11T14:25:28.267Z,50
2018-09-11T14:26:30.311Z,50
2018-09-11T14:27:32.648Z,50
2018-09-11T14:28:34.993Z,50
2018-09-11T14:29:37.030Z,50
2018-09-11T14:30:39.090Z,51
2018-09-11T14:31:41.133Z,50
2018-09-11T14:32:43.179Z,50
2018-09-11T14:33:45.224Z,51
2018-09-11T14:34:47.650Z,50
2018-09-11T14:35:49.698Z,50
2018-09-11T14:36:51.750Z,51
2018-09-11T14:37:53.795Z,50
2018-09-11T14:38:55.832Z,50
2018-09-11T14:39:57.895Z,50